createdAt,value
2022-09-06T00:01:47.364Z,98379.73
2022-09-06T00:04:17.822Z,98384.48
2022-09-06T00:06:48.255Z,98381.29
2022-09-06T00:09:18.651Z,98380.12
2022-09-06T00:11:49.061Z,98373.76
2022-09-06T00:14:19.632Z,98375.52
2022-09-06T00:16:49.973Z,98373.10
2022-09-06T00:19:20.407Z,98372.15
2022-09-06T00:21:50.846Z,98369.98
2022-09-06T00:24:21.176Z,98366.13
2022-09-06T00:26:51.538Z,98365.23
2022-09-06T00:29:21.907Z,98362.11
2022-09-06T00:31:52.530Z,98361.98
2022-09-06T00:34:22.917Z,98362.66
2022-09-06T00:36:53.327Z,98363.67
2022-09-06T00:39:23.816Z,98367.02
2022-09-06T00:41:54.330Z,98364.34
2022-09-06T00:44:24.732Z,98361.42
2022-09-06T00:46:55.697Z,98357.95
2022-09-06T00:49:29.260Z,98355.85
2022-09-06T00:52:02.071Z,98357.45
2022-09-06T00:54:32.663Z,98357.07
2022-09-06T00:57:03.543Z,98358.38
2022-09-06T00:59:36.735Z,98364.23
2022-09-06T01:02:09.226Z,98361.46
2022-09-06T01:04:38.488Z,98364.88
2022-09-06T01:07:16.377Z,98368.84
2022-09-06T01:09:53.812Z,98372.70
2022-09-06T01:12:31.832Z,98374.59
2022-09-06T01:15:11.120Z,98376.31
2022-09-06T01:17:49.088Z,98372.95
2022-09-06T01:20:48.305Z,98375.22
2022-09-06T01:23:53.385Z,98377.69
2022-09-06T01:26:55.513Z,98380.63
2022-09-06T01:29:30.484Z,98382.87
2022-09-06T01:32:04.804Z,98389.65
2022-09-06T01:34:41.250Z,98383.74
2022-09-06T01:37:14.172Z,98383.81
2022-09-06T01:39:44.663Z,98380.23
2022-09-06T01:42:16.902Z,98381.23
2022-09-06T01:44:51.168Z,98378.16
2022-09-06T01:47:29.520Z,98373.89
2022-09-06T01:50:17.934Z,98370.41
2022-09-06T01:52:55.566Z,98372.66
2022-09-06T01:55:32.104Z,98371.21
2022-09-06T01:58:16.192Z,98378.58
2022-09-06T02:00:53.196Z,98450.32
2022-09-06T02:03:29.221Z,98484.55
2022-09-06T02:06:04.156Z,98497.45
2022-09-06T02:08:36.659Z,98488.60
2022-09-06T02:11:08.594Z,98464.55
2022-09-06T02:13:41.408Z,98472.10
2022-09-06T02:16:14.207Z,98474.91
2022-09-06T02:18:49.821Z,98468.94
2022-09-06T02:21:23.526Z,98457.58
2022-09-06T02:23:54.444Z,98456.02
2022-09-06T02:26:27.544Z,98449.91
2022-09-06T02:28:58.158Z,98444.98
2022-09-06T02:31:30.176Z,98436.92
2022-09-06T02:34:01.032Z,98436.82
2022-09-06T02:36:32.285Z,98428.17
2022-09-06T02:39:03.214Z,98423.14
2022-09-06T02:41:34.334Z,98413.05
2022-09-06T02:44:05.101Z,98406.84
2022-09-06T02:46:35.429Z,98404.50
2022-09-06T02:49:05.804Z,98410.63
2022-09-06T02:51:40.045Z,98409.69
2022-09-06T02:54:10.635Z,98405.91
2022-09-06T02:56:41.201Z,98400.94
2022-09-06T02:59:11.540Z,98412.73
2022-09-06T03:07:37.095Z,98393.80
2022-09-06T03:10:09.341Z,98386.12
2022-09-06T03:12:39.651Z,98379.39
2022-09-06T03:15:12.081Z,98372.61
2022-09-06T03:17:42.764Z,98367.52
2022-09-06T03:20:14.553Z,98353.19
2022-09-06T03:22:45.108Z,98347.95
2022-09-06T03:25:15.447Z,98345.64
2022-09-06T03:27:46.202Z,98344.10
2022-09-06T03:30:16.950Z,98349.98
2022-09-06T03:32:47.433Z,98352.09
2022-09-06T03:35:17.936Z,98345.19
2022-09-06T03:37:48.245Z,98340.76
2022-09-06T03:40:18.799Z,98336.48
2022-09-06T03:42:49.084Z,98325.21
2022-09-06T03:45:19.551Z,98317.80
2022-09-06T03:47:49.860Z,98308.77
2022-09-06T03:50:20.224Z,98300.38
2022-09-06T03:52:50.549Z,98286.29
2022-09-06T03:55:21.042Z,98277.55
2022-09-06T03:57:51.367Z,98278.69
2022-09-06T04:00:21.892Z,98278.25
2022-09-06T04:02:52.193Z,98277.35
2022-09-06T04:05:22.551Z,98269.42
2022-09-06T04:07:52.912Z,98267.76
2022-09-06T04:10:23.355Z,98273.44
2022-09-06T04:12:53.735Z,98279.97
2022-09-06T04:15:24.193Z,98296.70
2022-09-06T04:17:54.606Z,98316.13
2022-09-06T04:20:24.969Z,98328.20
2022-09-06T04:22:55.319Z,98330.84
2022-09-06T04:25:25.744Z,98329.38
2022-09-06T04:27:56.140Z,98331.44
2022-09-06T04:30:26.519Z,98331.50
2022-09-06T04:32:56.872Z,98332.49
2022-09-06T04:35:27.377Z,98338.08
2022-09-06T04:37:57.789Z,98338.02
2022-09-06T04:40:28.563Z,98341.61
2022-09-06T04:42:58.919Z,98356.41
2022-09-06T04:45:29.359Z,98359.30
2022-09-06T04:47:59.698Z,98351.96
2022-09-06T04:50:30.194Z,98354.95
2022-09-06T04:53:10.850Z,98367.73
2022-09-06T04:55:41.440Z,98373.50
2022-09-06T04:58:11.841Z,98376.16
2022-09-06T05:00:44.633Z,98370.00
2022-09-06T05:03:15.292Z,98365.63
2022-09-06T05:05:45.639Z,98371.36
2022-09-06T05:08:16.230Z,98377.44
2022-09-06T05:10:46.610Z,98377.91
2022-09-06T05:13:16.961Z,98379.59
2022-09-06T05:15:47.423Z,98374.92
2022-09-06T05:18:17.765Z,98378.93
2022-09-06T05:20:53.915Z,98377.96
2022-09-06T05:23:24.745Z,98376.46
2022-09-06T05:25:55.075Z,98377.41
2022-09-06T05:28:25.499Z,98379.64
2022-09-06T05:30:56.075Z,98379.06
2022-09-06T05:33:26.422Z,98379.71
2022-09-06T05:35:56.751Z,98386.27
2022-09-06T05:38:29.632Z,98391.15
2022-09-06T05:41:00.351Z,98389.20
2022-09-06T05:43:31.002Z,98383.13
2022-09-06T05:46:01.708Z,98386.89
2022-09-06T05:48:36.583Z,98390.51
2022-09-06T05:51:09.702Z,98388.48
2022-09-06T05:53:39.538Z,98390.31
2022-09-06T05:56:10.582Z,98391.73
2022-09-06T05:58:41.263Z,98394.44
2022-09-06T06:01:19.150Z,98401.92
2022-09-06T06:03:54.796Z,98405.41
2022-09-06T06:06:26.432Z,98403.02
2022-09-06T06:08:57.332Z,98398.77
2022-09-06T06:11:28.325Z,98401.95
2022-09-06T06:13:59.204Z,98398.89
2022-09-06T06:16:29.835Z,98403.23
2022-09-06T06:19:00.228Z,98408.64
2022-09-06T06:21:32.009Z,98409.57
2022-09-06T06:24:04.313Z,98412.02
2022-09-06T06:26:33.722Z,98418.77
2022-09-06T06:29:05.666Z,98411.19
2022-09-06T06:31:36.735Z,98412.77
2022-09-06T06:34:07.440Z,98418.70
2022-09-06T06:36:38.792Z,98420.55
2022-09-06T06:39:09.651Z,98420.34
2022-09-06T06:41:40.057Z,98418.21
2022-09-06T06:44:27.971Z,98421.73
2022-09-06T06:47:01.867Z,98422.42
2022-09-06T06:49:33.892Z,98427.02
2022-09-06T06:52:04.589Z,98424.21
2022-09-06T06:54:34.991Z,98422.90
2022-09-06T06:57:05.910Z,98418.55
2022-09-06T06:59:36.247Z,98414.22
2022-09-06T07:02:06.929Z,98414.16
2022-09-06T07:04:37.428Z,98413.09
2022-09-06T07:12:48.816Z,98425.57
2022-09-06T07:15:19.279Z,98424.02
2022-09-06T07:17:49.563Z,98423.08
2022-09-06T07:20:20.351Z,98424.05
2022-09-06T07:25:51.375Z,98429.20
2022-09-06T07:28:23.521Z,98433.42
2022-09-06T07:30:55.984Z,98434.92
2022-09-06T07:33:26.391Z,98432.13
2022-09-06T07:36:04.908Z,98438.20
2022-09-06T07:38:35.784Z,98442.92
2022-09-06T07:41:08.023Z,98447.77
2022-09-06T07:43:38.820Z,98453.36
2022-09-06T07:46:10.850Z,98451.42
2022-09-06T07:48:40.497Z,98446.95
2022-09-06T07:51:12.286Z,98448.78
2022-09-06T07:53:43.641Z,98448.77
2022-09-06T07:56:14.973Z,98448.73
2022-09-06T07:58:45.263Z,98450.64
2022-09-06T08:01:20.025Z,98453.52
2022-09-06T08:03:50.428Z,98456.27
2022-09-06T08:06:20.884Z,98456.70
2022-09-06T08:08:59.529Z,98453.42
2022-09-06T08:11:31.592Z,98449.82
2022-09-06T08:14:05.011Z,98453.35
2022-09-06T08:16:36.329Z,98454.37
2022-09-06T08:19:08.757Z,98445.40
2022-09-06T08:21:39.265Z,98444.61
2022-09-06T08:24:11.192Z,98443.63
2022-09-06T08:26:42.316Z,98446.42
2022-09-06T08:29:13.558Z,98445.29
2022-09-06T08:31:45.306Z,98447.79
2022-09-06T08:34:16.014Z,98451.55
2022-09-06T08:36:46.651Z,98449.06
2022-09-06T08:39:16.993Z,98449.61
2022-09-06T08:41:52.470Z,98451.85
2022-09-06T08:47:17.096Z,98450.14
2022-09-06T08:49:49.124Z,98448.61
2022-09-06T08:52:49.713Z,98446.34
2022-09-06T08:55:36.656Z,98448.84
2022-09-06T08:58:23.133Z,98447.55
2022-09-06T09:00:58.523Z,98444.95
2022-09-06T09:03:34.551Z,98443.02
2022-09-06T09:06:06.348Z,98441.13
2022-09-06T09:08:36.413Z,98437.73
2022-09-06T09:11:09.224Z,98436.34
2022-09-06T09:13:44.688Z,98433.39
2022-09-06T09:16:15.391Z,98430.91
2022-09-06T09:18:47.761Z,98431.73
2022-09-06T09:21:21.391Z,98428.31
2022-09-06T09:23:54.891Z,98418.27
2022-09-06T09:26:27.809Z,98420.95
2022-09-06T09:29:08.849Z,98414.02
2022-09-06T09:31:41.902Z,98415.41
2022-09-06T09:34:29.512Z,98411.23
2022-09-06T09:40:05.757Z,98408.15
2022-09-06T09:42:38.472Z,98405.07
2022-09-06T09:45:25.341Z,98398.70
2022-09-06T09:47:55.749Z,98389.33
2022-09-06T09:50:28.907Z,98387.69
2022-09-06T09:53:09.264Z,98383.73
2022-09-06T09:55:40.038Z,98387.50
2022-09-06T09:58:16.146Z,98389.92
2022-09-06T10:00:46.555Z,98385.55
2022-09-06T10:03:18.956Z,98384.04
2022-09-06T10:06:02.845Z,98381.05
2022-09-06T10:08:39.502Z,98377.36
2022-09-06T10:11:09.807Z,98376.35
2022-09-06T10:13:41.967Z,98379.80
2022-09-06T10:16:12.491Z,98377.12
2022-09-06T10:18:44.632Z,98378.48
2022-09-06T10:21:16.322Z,98372.45
2022-09-06T10:26:54.159Z,98364.46
2022-09-06T10:29:31.601Z,98368.30
2022-09-06T10:32:13.597Z,98367.58
2022-09-06T10:35:07.559Z,98359.96
2022-09-06T10:37:48.802Z,98355.55
2022-09-06T10:40:27.654Z,98353.13
2022-09-06T10:43:00.387Z,98345.54
2022-09-06T10:46:03.068Z,98350.64
2022-09-06T10:48:34.590Z,98350.06
2022-09-06T10:51:05.158Z,98354.77
2022-09-06T10:53:44.272Z,98349.88
2022-09-06T10:56:18.928Z,98343.89
2022-09-06T11:01:55.638Z,98330.38
2022-09-06T11:04:29.318Z,98331.98
2022-09-06T11:07:02.119Z,98337.15
2022-09-06T11:09:37.681Z,98335.60
2022-09-06T11:12:10.954Z,98332.31
2022-09-06T11:14:41.872Z,98328.87
2022-09-06T11:17:15.934Z,98324.10
2022-09-06T11:19:50.613Z,98329.20
2022-09-06T11:23:04.355Z,98325.67
2022-09-06T11:25:47.094Z,98320.68
2022-09-06T11:28:22.130Z,98315.91
2022-09-06T11:30:58.459Z,98313.44
2022-09-06T11:33:30.502Z,98308.65
2022-09-06T11:36:24.341Z,98308.14
2022-09-06T11:38:59.588Z,98302.73
2022-09-06T11:41:33.173Z,98300.94
2022-09-06T11:44:04.463Z,98303.97
2022-09-06T11:47:01.560Z,98302.17
2022-09-06T11:49:37.531Z,98303.38
2022-09-06T11:52:38.538Z,98305.20
2022-09-06T11:55:12.244Z,98308.73
2022-09-06T11:57:43.887Z,98300.65
2022-09-06T12:00:23.775Z,98292.77
2022-09-06T12:02:54.507Z,98283.11
2022-09-06T12:05:30.935Z,98287.25
2022-09-06T12:08:35.292Z,98287.38
2022-09-06T12:11:27.086Z,98290.55
2022-09-06T12:14:04.145Z,98292.04
2022-09-06T12:17:07.617Z,98290.02
2022-09-06T12:19:47.451Z,98287.29
2022-09-06T12:22:49.011Z,98281.85
2022-09-06T12:25:21.143Z,98284.24
2022-09-06T12:27:56.461Z,98278.04
2022-09-06T12:30:37.378Z,98273.04
2022-09-06T12:33:08.114Z,98280.08
2022-09-06T12:38:29.545Z,98272.88
2022-09-06T12:41:01.136Z,98269.81
2022-09-06T12:43:36.061Z,98271.89
2022-09-06T12:46:08.811Z,98269.14
2022-09-06T12:48:41.344Z,98269.08
2022-09-06T12:51:16.236Z,98265.13
2022-09-06T12:53:55.766Z,98261.67
2022-09-06T12:56:27.675Z,98255.05
2022-09-06T12:59:16.944Z,98251.27
2022-09-06T13:01:52.687Z,98250.90
2022-09-06T13:04:30.109Z,98247.11
2022-09-06T13:07:01.331Z,98244.90
2022-09-06T13:09:32.336Z,98240.51
2022-09-06T13:12:07.707Z,98229.98
2022-09-06T13:14:38.206Z,98238.34
2022-09-06T13:17:09.313Z,98239.05
2022-09-06T13:19:40.439Z,98231.72
2022-09-06T13:22:11.847Z,98226.40
2022-09-06T13:24:47.945Z,98221.86
2022-09-06T13:27:34.725Z,98222.42
2022-09-06T13:30:08.189Z,98214.89
2022-09-06T13:32:46.886Z,98220.30
2022-09-06T13:35:26.273Z,98218.95
2022-09-06T13:38:36.809Z,98225.83
2022-09-06T13:41:13.519Z,98223.74
2022-09-06T13:43:47.975Z,98217.17
2022-09-06T13:46:18.345Z,98218.45
2022-09-06T13:48:48.706Z,98219.40
2022-09-06T13:51:19.143Z,98222.91
2022-09-06T13:53:48.901Z,98219.39
2022-09-06T13:56:19.446Z,98212.92
2022-09-06T13:58:49.748Z,98211.73
2022-09-06T14:01:20.459Z,98208.73
2022-09-06T14:03:52.311Z,98211.36
2022-09-06T14:06:22.710Z,98206.05
2022-09-06T14:09:08.217Z,98200.20
2022-09-06T14:11:39.293Z,98209.27
2022-09-06T14:14:10.879Z,98205.14
2022-09-06T14:16:41.234Z,98203.05
2022-09-06T14:19:11.844Z,98195.86
2022-09-06T14:21:42.182Z,98183.67
2022-09-06T14:24:12.616Z,98190.11
2022-09-06T14:26:42.920Z,98200.59
2022-09-06T14:29:13.242Z,98200.51
2022-09-06T14:31:43.558Z,98192.45
2022-09-06T14:34:14.074Z,98188.30
2022-09-06T14:36:44.422Z,98178.27
2022-09-06T14:39:14.817Z,98176.41
2022-09-06T14:41:45.150Z,98172.20
2022-09-06T14:44:15.473Z,98168.87
2022-09-06T14:46:47.655Z,98167.08
2022-09-06T14:49:18.483Z,98165.02
2022-09-06T14:51:48.893Z,98158.02
2022-09-06T14:54:19.318Z,98158.04
2022-09-06T14:56:49.685Z,98158.55
2022-09-06T14:59:20.067Z,98156.70
2022-09-06T15:01:50.445Z,98149.74
2022-09-06T15:04:20.966Z,98145.64
2022-09-06T15:06:51.760Z,98148.08
2022-09-06T15:09:22.197Z,98142.95
2022-09-06T15:11:53.484Z,98143.16
2022-09-06T15:14:25.144Z,98142.25
2022-09-06T15:16:58.084Z,98143.70
2022-09-06T15:19:30.144Z,98145.89
2022-09-06T15:21:58.990Z,98145.20
2022-09-06T15:24:29.376Z,98145.80
2022-09-06T15:26:59.881Z,98143.23
2022-09-06T15:29:30.228Z,98137.67
2022-09-06T15:32:00.547Z,98132.20
2022-09-06T15:34:30.823Z,98134.17
2022-09-06T15:37:01.156Z,98139.01
2022-09-06T15:39:31.596Z,98145.67
2022-09-06T15:42:01.967Z,98151.05
2022-09-06T15:44:33.026Z,98152.06
2022-09-06T15:47:03.369Z,98153.33
2022-09-06T15:49:34.127Z,98152.31
2022-09-06T15:52:06.064Z,98155.27
2022-09-06T15:54:53.790Z,98159.52
2022-09-06T15:57:24.408Z,98168.30
2022-09-06T15:59:55.449Z,98172.57
2022-09-06T16:02:26.147Z,98177.77
2022-09-06T16:04:56.875Z,98173.54
2022-09-06T16:07:27.554Z,98170.71
2022-09-06T16:09:59.306Z,98168.30
2022-09-06T16:12:29.681Z,98171.01
2022-09-06T16:15:00.023Z,98171.28
2022-09-06T16:17:31.194Z,98169.34
2022-09-06T16:20:01.625Z,98171.43
2022-09-06T16:22:31.986Z,98170.70
2022-09-06T16:25:02.421Z,98175.43
2022-09-06T16:27:32.803Z,98175.17
2022-09-06T16:30:03.180Z,98178.55
2022-09-06T16:32:33.551Z,98177.41
2022-09-06T16:35:05.787Z,98177.10
2022-09-06T16:37:36.144Z,98177.70
2022-09-06T16:40:10.338Z,98174.37
2022-09-06T16:42:40.714Z,98167.47
2022-09-06T16:45:12.154Z,98159.77
2022-09-06T16:47:42.626Z,98158.82
2022-09-06T16:50:13.045Z,98160.10
2022-09-06T16:52:43.362Z,98168.77
2022-09-06T16:55:13.914Z,98176.85
2022-09-06T16:57:44.224Z,98209.36
2022-09-06T17:00:17.083Z,98235.19
2022-09-06T17:02:47.861Z,98241.14
2022-09-06T17:05:18.564Z,98259.16
2022-09-06T17:07:49.033Z,98280.85
2022-09-06T17:10:19.558Z,98305.02
2022-09-06T17:12:50.067Z,98320.39
2022-09-06T17:15:20.806Z,98316.40
2022-09-06T17:17:51.164Z,98313.66
2022-09-06T17:20:21.531Z,98316.27
2022-09-06T17:22:53.445Z,98324.85
2022-09-06T17:25:23.787Z,98331.05
2022-09-06T17:27:54.161Z,98349.33
2022-09-06T17:30:24.630Z,98370.70
2022-09-06T17:32:55.429Z,98367.23
2022-09-06T17:35:25.893Z,98358.91
2022-09-06T17:37:56.332Z,98353.14
2022-09-06T17:40:26.762Z,98343.73
2022-09-06T17:42:57.209Z,98337.96
2022-09-06T17:45:27.663Z,98338.73
2022-09-06T17:47:58.022Z,98340.88
2022-09-06T17:50:30.585Z,98336.15
2022-09-06T17:53:01.539Z,98336.38
2022-09-06T17:55:31.986Z,98331.39
2022-09-06T17:58:03.027Z,98329.20
2022-09-06T18:00:33.437Z,98317.18
2022-09-06T18:03:03.741Z,98296.91
2022-09-06T18:05:39.636Z,98272.67
2022-09-06T18:08:11.051Z,98250.29
2022-09-06T18:10:41.417Z,98236.88
2022-09-06T18:13:11.801Z,98238.29
2022-09-06T18:15:42.524Z,98247.80
2022-09-06T18:18:13.108Z,98255.81
2022-09-06T18:20:43.571Z,98256.03
2022-09-06T18:23:14.001Z,98252.29
2022-09-06T18:25:44.408Z,98248.98
2022-09-06T18:28:15.013Z,98252.63
2022-09-06T18:30:45.325Z,98251.41
2022-09-06T18:33:15.720Z,98242.17
2022-09-06T18:35:46.055Z,98224.12
2022-09-06T18:38:16.460Z,98210.08
2022-09-06T18:40:54.189Z,98209.09
2022-09-06T18:43:28.033Z,98199.05
2022-09-06T18:46:04.727Z,98195.64
2022-09-06T18:48:36.465Z,98193.30
2022-09-06T18:51:07.956Z,98193.45
2022-09-06T18:53:44.018Z,98187.40
2022-09-06T18:56:16.037Z,98183.31
2022-09-06T18:58:46.408Z,98182.48
2022-09-06T19:01:18.226Z,98178.15
2022-09-06T19:03:49.150Z,98175.55
2022-09-06T19:06:21.699Z,98182.05
2022-09-06T19:08:53.794Z,98177.05
2022-09-06T19:11:24.839Z,98167.86
2022-09-06T19:13:56.803Z,98165.27
2022-09-06T19:16:28.904Z,98167.13
2022-09-06T19:19:04.298Z,98167.44
2022-09-06T19:21:39.168Z,98161.25
2022-09-06T19:24:14.552Z,98161.29
2022-09-06T19:26:46.889Z,98156.96
2022-09-06T19:29:18.614Z,98155.44
2022-09-06T19:31:49.462Z,98148.17
2022-09-06T19:34:19.953Z,98139.80
2022-09-06T19:36:55.057Z,98141.55
2022-09-06T19:39:31.138Z,98132.45
2022-09-06T19:42:04.371Z,98120.81
2022-09-06T19:44:34.881Z,98115.42
2022-09-06T19:47:05.482Z,98115.23
2022-09-06T19:49:35.864Z,98111.59
2022-09-06T19:52:09.522Z,98104.46
2022-09-06T19:54:40.412Z,98099.69
2022-09-06T19:57:11.100Z,98094.73
2022-09-06T19:59:41.481Z,98092.16
2022-09-06T20:02:11.863Z,98089.23
2022-09-06T20:04:42.369Z,98090.10
2022-09-06T20:07:12.727Z,98092.14
2022-09-06T20:09:43.297Z,98093.27
2022-09-06T20:12:13.640Z,98089.13
2022-09-06T20:14:44.008Z,98084.12
2022-09-06T20:17:32.617Z,98077.44
2022-09-06T20:20:04.496Z,98077.52
2022-09-06T20:22:34.836Z,98082.91
2022-09-06T20:25:05.600Z,98086.66
2022-09-06T20:27:36.001Z,98086.42
2022-09-06T20:30:07.495Z,98084.15
2022-09-06T20:32:37.913Z,98084.95
2022-09-06T20:35:09.987Z,98083.61
2022-09-06T20:37:40.940Z,98081.22
2022-09-06T20:40:12.992Z,98077.83
2022-09-06T20:42:45.923Z,98078.35
2022-09-06T20:45:17.714Z,98081.30
2022-09-06T20:47:48.082Z,98080.37
2022-09-06T20:50:18.527Z,98082.70
2022-09-06T20:52:48.828Z,98084.17
2022-09-06T20:55:19.308Z,98082.15
2022-09-06T20:57:50.262Z,98081.70
2022-09-06T21:00:20.735Z,98081.77
2022-09-06T21:02:51.015Z,98081.84
2022-09-06T21:05:21.370Z,98078.59
2022-09-06T21:07:51.632Z,98079.08
2022-09-06T21:10:21.954Z,98080.94
2022-09-06T21:12:52.338Z,98084.38
2022-09-06T21:15:22.636Z,98092.27
2022-09-06T21:17:53.084Z,98094.48
2022-09-06T21:20:23.412Z,98094.12
2022-09-06T21:22:53.688Z,98098.58
2022-09-06T21:25:24.110Z,98099.83
2022-09-06T21:27:55.878Z,98102.70
2022-09-06T21:30:26.343Z,98095.88
2022-09-06T21:32:57.119Z,98095.72
2022-09-06T21:35:27.448Z,98097.73
2022-09-06T21:37:57.771Z,98107.23
2022-09-06T21:40:28.087Z,98108.58
2022-09-06T21:42:58.358Z,98105.31
2022-09-06T21:45:28.684Z,98106.24
2022-09-06T21:47:59.116Z,98109.61
2022-09-06T21:50:29.611Z,98102.95
2022-09-06T21:52:59.936Z,98103.48
2022-09-06T21:55:30.261Z,98100.96
2022-09-06T21:58:00.920Z,98099.67
2022-09-06T22:00:31.288Z,98098.34
2022-09-06T22:03:01.598Z,98097.15
2022-09-06T22:05:32.254Z,98094.08
2022-09-06T22:08:02.941Z,98086.11
2022-09-06T22:10:33.313Z,98085.52
2022-09-06T22:13:03.645Z,98087.58
2022-09-06T22:15:37.393Z,98086.30
2022-09-06T22:18:08.247Z,98086.91
2022-09-06T22:20:38.926Z,98089.58
2022-09-06T22:23:09.959Z,98082.34
2022-09-06T22:25:42.855Z,98078.77
2022-09-06T22:28:13.201Z,98076.05
2022-09-06T22:30:44.064Z,98074.03
2022-09-06T22:33:14.418Z,98073.01
2022-09-06T22:35:44.751Z,98077.35
2022-09-06T22:38:15.145Z,98070.11
2022-09-06T22:40:45.559Z,98067.55
2022-09-06T22:43:17.128Z,98064.27
2022-09-06T22:45:51.870Z,98059.98
2022-09-06T22:48:22.844Z,98061.08
2022-09-06T22:50:53.607Z,98058.50
2022-09-06T22:53:23.920Z,98054.71
2022-09-06T22:55:54.261Z,98049.20
2022-09-06T22:58:26.824Z,98042.59
2022-09-06T23:00:57.595Z,98037.08
2022-09-06T23:03:28.051Z,98042.97
2022-09-06T23:06:02.733Z,98040.89
2022-09-06T23:08:35.347Z,98042.19
2022-09-06T23:11:12.255Z,98044.83
2022-09-06T23:13:44.579Z,98052.56
2022-09-06T23:16:17.259Z,98053.16
2022-09-06T23:18:47.126Z,98060.55
2022-09-06T23:21:21.052Z,98066.94
2022-09-06T23:23:54.608Z,98070.55
2022-09-06T23:26:28.083Z,98068.34
2022-09-06T23:29:00.194Z,98067.67
2022-09-06T23:31:34.140Z,98070.15
2022-09-06T23:34:05.903Z,98073.58
2022-09-06T23:36:37.092Z,98072.73
2022-09-06T23:39:09.410Z,98070.77
2022-09-06T23:41:41.113Z,98070.63
2022-09-06T23:44:12.411Z,98064.70
2022-09-06T23:46:43.900Z,98063.17
2022-09-06T23:49:15.199Z,98061.27
2022-09-06T23:51:48.146Z,98062.18
2022-09-06T23:54:19.451Z,98063.11
2022-09-06T23:56:51.153Z,98066.98
2022-09-06T23:59:22.292Z,98069.66
